sensor_id;sensor_type;location;lat;lon;timestamp;P1;durP1;ratioP1;P2;durP2;ratioP2
22417;SDS011;11376;50.932;4.442;2022-07-29T00:01:06;4.30;;;0.80;;
22417;SDS011;11376;50.932;4.442;2022-07-29T00:03:32;3.70;;;0.60;;
22417;SDS011;11376;50.932;4.442;2022-07-29T00:05:57;4.10;;;0.63;;
22417;SDS011;11376;50.932;4.442;2022-07-29T00:08:23;2.75;;;0.50;;
22417;SDS011;11376;50.932;4.442;2022-07-29T00:10:49;1.23;;;0.50;;
22417;SDS011;11376;50.932;4.442;2022-07-29T00:13:16;1.55;;;0.50;;
22417;SDS011;11376;50.932;4.442;2022-07-29T00:15:41;1.80;;;0.50;;
22417;SDS011;11376;50.932;4.442;2022-07-29T00:18:07;1.13;;;0.30;;
22417;SDS011;11376;50.932;4.442;2022-07-29T00:20:33;1.70;;;0.73;;
22417;SDS011;11376;50.932;4.442;2022-07-29T00:22:58;3.35;;;0.60;;
22417;SDS011;11376;50.932;4.442;2022-07-29T00:25:24;2.90;;;0.68;;
22417;SDS011;11376;50.932;4.442;2022-07-29T00:27:49;1.58;;;0.55;;
22417;SDS011;11376;50.932;4.442;2022-07-29T00:30:15;1.75;;;0.52;;
22417;SDS011;11376;50.932;4.442;2022-07-29T00:32:41;9.02;;;0.80;;
22417;SDS011;11376;50.932;4.442;2022-07-29T00:35:06;2.92;;;0.60;;
22417;SDS011;11376;50.932;4.442;2022-07-29T00:37:51;1.25;;;0.45;;
22417;SDS011;11376;50.932;4.442;2022-07-29T00:40:17;2.42;;;0.70;;
22417;SDS011;11376;50.932;4.442;2022-07-29T00:42:46;2.42;;;0.50;;
22417;SDS011;11376;50.932;4.442;2022-07-29T00:45:13;2.00;;;0.50;;
22417;SDS011;11376;50.932;4.442;2022-07-29T00:47:40;2.90;;;0.70;;
22417;SDS011;11376;50.932;4.442;2022-07-29T00:50:06;2.03;;;0.70;;
22417;SDS011;11376;50.932;4.442;2022-07-29T00:52:33;2.33;;;0.50;;
22417;SDS011;11376;50.932;4.442;2022-07-29T00:55:02;2.42;;;0.50;;
22417;SDS011;11376;50.932;4.442;2022-07-29T00:57:29;2.67;;;0.82;;
22417;SDS011;11376;50.932;4.442;2022-07-29T00:59:55;3.53;;;0.52;;
22417;SDS011;11376;50.932;4.442;2022-07-29T01:02:20;1.35;;;0.60;;
22417;SDS011;11376;50.932;4.442;2022-07-29T01:04:46;1.73;;;0.50;;
22417;SDS011;11376;50.932;4.442;2022-07-29T01:07:12;2.67;;;0.43;;
22417;SDS011;11376;50.932;4.442;2022-07-29T01:09:38;3.75;;;0.70;;
22417;SDS011;11376;50.932;4.442;2022-07-29T01:12:05;3.10;;;0.90;;
22417;SDS011;11376;50.932;4.442;2022-07-29T01:14:31;4.13;;;0.50;;
22417;SDS011;11376;50.932;4.442;2022-07-29T01:16:59;1.75;;;0.45;;
22417;SDS011;11376;50.932;4.442;2022-07-29T01:22:22;2.47;;;0.60;;
22417;SDS011;11376;50.932;4.442;2022-07-29T01:30:24;3.28;;;0.80;;
22417;SDS011;11376;50.932;4.442;2022-07-29T01:32:54;6.68;;;0.70;;
22417;SDS011;11376;50.932;4.442;2022-07-29T01:35:25;2.45;;;0.73;;
22417;SDS011;11376;50.932;4.442;2022-07-29T01:40:58;2.25;;;0.50;;
22417;SDS011;11376;50.932;4.442;2022-07-29T01:43:37;2.10;;;0.57;;
22417;SDS011;11376;50.932;4.442;2022-07-29T01:46:09;1.85;;;0.52;;
22417;SDS011;11376;50.932;4.442;2022-07-29T01:48:47;4.55;;;0.55;;
22417;SDS011;11376;50.932;4.442;2022-07-29T01:51:19;5.22;;;0.50;;
22417;SDS011;11376;50.932;4.442;2022-07-29T01:53:54;1.05;;;0.45;;
22417;SDS011;11376;50.932;4.442;2022-07-29T01:56:33;2.95;;;0.63;;
22417;SDS011;11376;50.932;4.442;2022-07-29T01:59:01;1.40;;;0.50;;
22417;SDS011;11376;50.932;4.442;2022-07-29T02:01:29;3.50;;;0.52;;
22417;SDS011;11376;50.932;4.442;2022-07-29T02:03:57;2.33;;;0.65;;
22417;SDS011;11376;50.932;4.442;2022-07-29T02:06:26;1.85;;;0.60;;
22417;SDS011;11376;50.932;4.442;2022-07-29T02:08:55;2.75;;;0.50;;
22417;SDS011;11376;50.932;4.442;2022-07-29T02:11:22;2.55;;;0.60;;
22417;SDS011;11376;50.932;4.442;2022-07-29T02:13:48;0.98;;;0.45;;
22417;SDS011;11376;50.932;4.442;2022-07-29T02:16:15;2.50;;;0.60;;
22417;SDS011;11376;50.932;4.442;2022-07-29T02:18:43;3.17;;;0.60;;
22417;SDS011;11376;50.932;4.442;2022-07-29T02:21:11;2.85;;;0.65;;
22417;SDS011;11376;50.932;4.442;2022-07-29T02:23:37;5.18;;;0.65;;
22417;SDS011;11376;50.932;4.442;2022-07-29T02:26:04;1.52;;;0.45;;
22417;SDS011;11376;50.932;4.442;2022-07-29T02:28:31;3.40;;;0.60;;
22417;SDS011;11376;50.932;4.442;2022-07-29T02:30:59;2.53;;;0.70;;
22417;SDS011;11376;50.932;4.442;2022-07-29T02:33:27;1.67;;;0.63;;
22417;SDS011;11376;50.932;4.442;2022-07-29T02:35:55;2.15;;;0.70;;
22417;SDS011;11376;50.932;4.442;2022-07-29T02:38:22;4.50;;;0.68;;
22417;SDS011;11376;50.932;4.442;2022-07-29T02:41:13;2.00;;;0.73;;
22417;SDS011;11376;50.932;4.442;2022-07-29T02:43:43;1.50;;;0.55;;
22417;SDS011;11376;50.932;4.442;2022-07-29T02:46:14;4.80;;;0.80;;
22417;SDS011;11376;50.932;4.442;2022-07-29T02:48:51;3.15;;;0.68;;
22417;SDS011;11376;50.932;4.442;2022-07-29T02:51:24;2.78;;;0.85;;
22417;SDS011;11376;50.932;4.442;2022-07-29T02:53:54;2.00;;;0.57;;
22417;SDS011;11376;50.932;4.442;2022-07-29T02:56:23;1.77;;;0.75;;
22417;SDS011;11376;50.932;4.442;2022-07-29T02:58:57;1.33;;;0.57;;
22417;SDS011;11376;50.932;4.442;2022-07-29T03:01:26;1.58;;;0.60;;
22417;SDS011;11376;50.932;4.442;2022-07-29T03:03:56;3.20;;;0.47;;
22417;SDS011;11376;50.932;4.442;2022-07-29T03:06:26;2.15;;;0.52;;
22417;SDS011;11376;50.932;4.442;2022-07-29T03:08:54;2.63;;;0.70;;
22417;SDS011;11376;50.932;4.442;2022-07-29T03:11:20;1.98;;;0.85;;
22417;SDS011;11376;50.932;4.442;2022-07-29T03:13:47;1.67;;;0.85;;
22417;SDS011;11376;50.932;4.442;2022-07-29T03:16:13;1.50;;;0.60;;
22417;SDS011;11376;50.932;4.442;2022-07-29T03:18:40;1.83;;;0.73;;
22417;SDS011;11376;50.932;4.442;2022-07-29T03:21:06;4.43;;;0.85;;
22417;SDS011;11376;50.932;4.442;2022-07-29T03:23:31;1.75;;;0.65;;
22417;SDS011;11376;50.932;4.442;2022-07-29T03:25:57;3.25;;;0.80;;
22417;SDS011;11376;50.932;4.442;2022-07-29T03:28:23;2.80;;;0.70;;
22417;SDS011;11376;50.932;4.442;2022-07-29T03:30:49;2.17;;;0.80;;
22417;SDS011;11376;50.932;4.442;2022-07-29T03:33:15;2.03;;;0.90;;
22417;SDS011;11376;50.932;4.442;2022-07-29T03:35:41;2.22;;;0.80;;
22417;SDS011;11376;50.932;4.442;2022-07-29T03:38:07;4.15;;;0.60;;
22417;SDS011;11376;50.932;4.442;2022-07-29T03:40:38;2.80;;;0.90;;
22417;SDS011;11376;50.932;4.442;2022-07-29T03:43:11;1.45;;;0.65;;
22417;SDS011;11376;50.932;4.442;2022-07-29T03:45:41;2.67;;;0.93;;
22417;SDS011;11376;50.932;4.442;2022-07-29T03:48:10;4.18;;;1.13;;
22417;SDS011;11376;50.932;4.442;2022-07-29T03:50:39;3.08;;;0.80;;
22417;SDS011;11376;50.932;4.442;2022-07-29T03:53:05;4.63;;;0.98;;
22417;SDS011;11376;50.932;4.442;2022-07-29T03:55:32;2.55;;;0.95;;
22417;SDS011;11376;50.932;4.442;2022-07-29T03:58:02;2.05;;;1.13;;
22417;SDS011;11376;50.932;4.442;2022-07-29T04:00:29;3.90;;;0.82;;
22417;SDS011;11376;50.932;4.442;2022-07-29T04:02:56;2.22;;;0.90;;
22417;SDS011;11376;50.932;4.442;2022-07-29T04:05:22;2.63;;;0.98;;
22417;SDS011;11376;50.932;4.442;2022-07-29T04:07:48;2.30;;;1.02;;
22417;SDS011;11376;50.932;4.442;2022-07-29T04:10:14;3.78;;;1.50;;
22417;SDS011;11376;50.932;4.442;2022-07-29T04:12:40;5.60;;;0.90;;
22417;SDS011;11376;50.932;4.442;2022-07-29T04:15:06;2.90;;;1.02;;
22417;SDS011;11376;50.932;4.442;2022-07-29T04:17:32;3.00;;;1.10;;
22417;SDS011;11376;50.932;4.442;2022-07-29T04:19:58;3.67;;;1.40;;
22417;SDS011;11376;50.932;4.442;2022-07-29T04:22:24;4.35;;;1.27;;
22417;SDS011;11376;50.932;4.442;2022-07-29T04:24:49;4.30;;;1.35;;
22417;SDS011;11376;50.932;4.442;2022-07-29T04:27:15;2.47;;;1.00;;
22417;SDS011;11376;50.932;4.442;2022-07-29T04:29:41;5.38;;;1.23;;
22417;SDS011;11376;50.932;4.442;2022-07-29T04:32:06;3.78;;;1.20;;
22417;SDS011;11376;50.932;4.442;2022-07-29T04:34:32;3.20;;;1.00;;
22417;SDS011;11376;50.932;4.442;2022-07-29T04:36:57;2.78;;;1.13;;
22417;SDS011;11376;50.932;4.442;2022-07-29T04:39:23;2.40;;;1.10;;
22417;SDS011;11376;50.932;4.442;2022-07-29T04:41:50;5.63;;;1.25;;
22417;SDS011;11376;50.932;4.442;2022-07-29T04:44:16;5.18;;;1.50;;
22417;SDS011;11376;50.932;4.442;2022-07-29T04:46:42;4.07;;;1.25;;
22417;SDS011;11376;50.932;4.442;2022-07-29T04:49:07;8.68;;;1.27;;
22417;SDS011;11376;50.932;4.442;2022-07-29T04:51:33;3.88;;;1.13;;
22417;SDS011;11376;50.932;4.442;2022-07-29T04:53:59;1.80;;;1.00;;
22417;SDS011;11376;50.932;4.442;2022-07-29T04:56:25;3.58;;;1.17;;
22417;SDS011;11376;50.932;4.442;2022-07-29T04:58:51;2.83;;;1.30;;
22417;SDS011;11376;50.932;4.442;2022-07-29T05:01:17;2.55;;;1.08;;
22417;SDS011;11376;50.932;4.442;2022-07-29T05:03:43;3.60;;;1.20;;
22417;SDS011;11376;50.932;4.442;2022-07-29T05:06:10;6.28;;;1.15;;
22417;SDS011;11376;50.932;4.442;2022-07-29T05:08:36;3.63;;;1.27;;
22417;SDS011;11376;50.932;4.442;2022-07-29T05:11:02;5.47;;;1.20;;
22417;SDS011;11376;50.932;4.442;2022-07-29T05:13:28;4.22;;;1.25;;
22417;SDS011;11376;50.932;4.442;2022-07-29T05:15:54;2.00;;;0.95;;
22417;SDS011;11376;50.932;4.442;2022-07-29T05:18:20;3.22;;;0.90;;
22417;SDS011;11376;50.932;4.442;2022-07-29T05:20:46;5.60;;;1.70;;
22417;SDS011;11376;50.932;4.442;2022-07-29T05:23:11;7.93;;;1.27;;
22417;SDS011;11376;50.932;4.442;2022-07-29T05:25:37;2.63;;;1.02;;
22417;SDS011;11376;50.932;4.442;2022-07-29T05:28:03;2.22;;;1.20;;
22417;SDS011;11376;50.932;4.442;2022-07-29T05:30:29;2.78;;;1.00;;
22417;SDS011;11376;50.932;4.442;2022-07-29T05:32:54;4.53;;;1.40;;
22417;SDS011;11376;50.932;4.442;2022-07-29T05:35:20;2.30;;;1.10;;
22417;SDS011;11376;50.932;4.442;2022-07-29T05:37:46;3.17;;;1.30;;
22417;SDS011;11376;50.932;4.442;2022-07-29T05:40:11;3.15;;;1.17;;
22417;SDS011;11376;50.932;4.442;2022-07-29T05:42:37;4.35;;;1.40;;
22417;SDS011;11376;50.932;4.442;2022-07-29T05:45:03;2.83;;;1.15;;
22417;SDS011;11376;50.932;4.442;2022-07-29T05:47:29;6.88;;;1.25;;
22417;SDS011;11376;50.932;4.442;2022-07-29T05:49:54;3.83;;;1.20;;
22417;SDS011;11376;50.932;4.442;2022-07-29T05:52:20;2.80;;;1.05;;
22417;SDS011;11376;50.932;4.442;2022-07-29T05:54:46;2.40;;;1.02;;
22417;SDS011;11376;50.932;4.442;2022-07-29T05:57:18;2.72;;;1.08;;
22417;SDS011;11376;50.932;4.442;2022-07-29T05:59:45;3.33;;;1.10;;
22417;SDS011;11376;50.932;4.442;2022-07-29T06:02:11;3.13;;;1.00;;
22417;SDS011;11376;50.932;4.442;2022-07-29T06:04:37;2.08;;;0.93;;
22417;SDS011;11376;50.932;4.442;2022-07-29T06:07:03;2.45;;;1.10;;
22417;SDS011;11376;50.932;4.442;2022-07-29T06:09:29;6.68;;;1.00;;
22417;SDS011;11376;50.932;4.442;2022-07-29T06:11:54;2.72;;;1.10;;
22417;SDS011;11376;50.932;4.442;2022-07-29T06:14:20;4.70;;;1.02;;
22417;SDS011;11376;50.932;4.442;2022-07-29T06:16:46;2.10;;;1.05;;
22417;SDS011;11376;50.932;4.442;2022-07-29T06:19:11;3.22;;;1.20;;
22417;SDS011;11376;50.932;4.442;2022-07-29T06:21:41;2.92;;;1.40;;
22417;SDS011;11376;50.932;4.442;2022-07-29T06:24:13;2.47;;;0.85;;
22417;SDS011;11376;50.932;4.442;2022-07-29T06:26:40;6.10;;;1.40;;
22417;SDS011;11376;50.932;4.442;2022-07-29T06:29:06;3.22;;;1.40;;
22417;SDS011;11376;50.932;4.442;2022-07-29T06:31:33;2.00;;;1.15;;
22417;SDS011;11376;50.932;4.442;2022-07-29T06:33:58;2.30;;;1.17;;
22417;SDS011;11376;50.932;4.442;2022-07-29T06:36:24;2.53;;;1.20;;
22417;SDS011;11376;50.932;4.442;2022-07-29T06:38:50;2.28;;;1.15;;
22417;SDS011;11376;50.932;4.442;2022-07-29T06:41:15;2.33;;;1.10;;
22417;SDS011;11376;50.932;4.442;2022-07-29T06:43:42;3.25;;;1.23;;
22417;SDS011;11376;50.932;4.442;2022-07-29T06:46:10;2.88;;;0.98;;
22417;SDS011;11376;50.932;4.442;2022-07-29T06:48:40;3.80;;;1.27;;
22417;SDS011;11376;50.932;4.442;2022-07-29T06:51:10;2.55;;;1.08;;
22417;SDS011;11376;50.932;4.442;2022-07-29T06:53:36;2.83;;;1.10;;
22417;SDS011;11376;50.932;4.442;2022-07-29T06:56:04;4.22;;;1.65;;
22417;SDS011;11376;50.932;4.442;2022-07-29T06:58:31;4.18;;;1.85;;
22417;SDS011;11376;50.932;4.442;2022-07-29T07:00:57;3.70;;;1.48;;
22417;SDS011;11376;50.932;4.442;2022-07-29T07:03:25;4.15;;;1.38;;
22417;SDS011;11376;50.932;4.442;2022-07-29T07:05:51;3.15;;;1.23;;
22417;SDS011;11376;50.932;4.442;2022-07-29T07:08:18;4.00;;;0.90;;
22417;SDS011;11376;50.932;4.442;2022-07-29T07:10:45;6.38;;;1.50;;
22417;SDS011;11376;50.932;4.442;2022-07-29T07:13:11;7.07;;;1.67;;
22417;SDS011;11376;50.932;4.442;2022-07-29T07:15:37;3.63;;;1.40;;
22417;SDS011;11376;50.932;4.442;2022-07-29T07:18:03;3.72;;;1.40;;
22417;SDS011;11376;50.932;4.442;2022-07-29T07:20:30;3.78;;;1.63;;
22417;SDS011;11376;50.932;4.442;2022-07-29T07:22:56;2.95;;;1.63;;
22417;SDS011;11376;50.932;4.442;2022-07-29T07:25:21;7.15;;;1.48;;
22417;SDS011;11376;50.932;4.442;2022-07-29T07:27:47;2.60;;;1.20;;
22417;SDS011;11376;50.932;4.442;2022-07-29T07:30:12;3.92;;;1.10;;
22417;SDS011;11376;50.932;4.442;2022-07-29T07:32:38;3.08;;;1.23;;
22417;SDS011;11376;50.932;4.442;2022-07-29T07:35:05;3.05;;;1.25;;
22417;SDS011;11376;50.932;4.442;2022-07-29T07:37:33;3.65;;;1.30;;
22417;SDS011;11376;50.932;4.442;2022-07-29T07:39:59;5.97;;;1.80;;
22417;SDS011;11376;50.932;4.442;2022-07-29T07:42:25;4.18;;;1.45;;
22417;SDS011;11376;50.932;4.442;2022-07-29T07:44:51;3.80;;;1.70;;
22417;SDS011;11376;50.932;4.442;2022-07-29T07:47:17;3.33;;;1.75;;
22417;SDS011;11376;50.932;4.442;2022-07-29T07:49:48;8.48;;;1.75;;
22417;SDS011;11376;50.932;4.442;2022-07-29T07:52:15;7.15;;;1.50;;
22417;SDS011;11376;50.932;4.442;2022-07-29T07:54:42;6.50;;;1.70;;
22417;SDS011;11376;50.932;4.442;2022-07-29T07:57:08;4.35;;;1.70;;
22417;SDS011;11376;50.932;4.442;2022-07-29T07:59:34;5.10;;;1.60;;
22417;SDS011;11376;50.932;4.442;2022-07-29T08:02:00;2.85;;;1.50;;
22417;SDS011;11376;50.932;4.442;2022-07-29T08:04:26;5.30;;;1.67;;
22417;SDS011;11376;50.932;4.442;2022-07-29T08:06:52;4.28;;;1.10;;
22417;SDS011;11376;50.932;4.442;2022-07-29T08:09:19;6.70;;;1.52;;
22417;SDS011;11376;50.932;4.442;2022-07-29T08:11:45;5.25;;;1.75;;
22417;SDS011;11376;50.932;4.442;2022-07-29T08:14:11;3.97;;;1.35;;
22417;SDS011;11376;50.932;4.442;2022-07-29T08:16:36;4.93;;;1.50;;
22417;SDS011;11376;50.932;4.442;2022-07-29T08:19:02;5.25;;;1.20;;
22417;SDS011;11376;50.932;4.442;2022-07-29T08:21:28;4.28;;;1.88;;
22417;SDS011;11376;50.932;4.442;2022-07-29T08:23:53;9.85;;;1.90;;
22417;SDS011;11376;50.932;4.442;2022-07-29T08:26:40;3.92;;;1.52;;
22417;SDS011;11376;50.932;4.442;2022-07-29T08:29:06;5.10;;;1.48;;
22417;SDS011;11376;50.932;4.442;2022-07-29T08:31:32;4.00;;;1.30;;
22417;SDS011;11376;50.932;4.442;2022-07-29T08:33:58;3.65;;;1.38;;
22417;SDS011;11376;50.932;4.442;2022-07-29T08:36:24;5.10;;;1.50;;
22417;SDS011;11376;50.932;4.442;2022-07-29T08:38:51;4.50;;;1.30;;
22417;SDS011;11376;50.932;4.442;2022-07-29T08:41:17;3.20;;;1.10;;
22417;SDS011;11376;50.932;4.442;2022-07-29T08:43:44;1.85;;;1.10;;
22417;SDS011;11376;50.932;4.442;2022-07-29T08:46:10;1.67;;;1.08;;
22417;SDS011;11376;50.932;4.442;2022-07-29T08:48:35;3.90;;;1.17;;
22417;SDS011;11376;50.932;4.442;2022-07-29T08:51:01;4.50;;;1.00;;
22417;SDS011;11376;50.932;4.442;2022-07-29T08:53:27;3.05;;;1.10;;
22417;SDS011;11376;50.932;4.442;2022-07-29T08:55:53;6.38;;;1.00;;
22417;SDS011;11376;50.932;4.442;2022-07-29T08:58:19;2.42;;;0.70;;
22417;SDS011;11376;50.932;4.442;2022-07-29T09:00:53;3.28;;;1.02;;
22417;SDS011;11376;50.932;4.442;2022-07-29T09:03:22;3.78;;;1.00;;
22417;SDS011;11376;50.932;4.442;2022-07-29T09:05:49;3.00;;;1.13;;
22417;SDS011;11376;50.932;4.442;2022-07-29T09:08:16;1.75;;;0.85;;
22417;SDS011;11376;50.932;4.442;2022-07-29T09:10:42;2.50;;;0.95;;
22417;SDS011;11376;50.932;4.442;2022-07-29T09:13:09;3.95;;;0.90;;
22417;SDS011;11376;50.932;4.442;2022-07-29T09:15:35;4.38;;;0.82;;
22417;SDS011;11376;50.932;4.442;2022-07-29T09:18:00;3.20;;;0.90;;
22417;SDS011;11376;50.932;4.442;2022-07-29T09:20:27;1.33;;;0.60;;
22417;SDS011;11376;50.932;4.442;2022-07-29T09:23:13;1.92;;;0.77;;
22417;SDS011;11376;50.932;4.442;2022-07-29T09:25:40;2.40;;;0.73;;
22417;SDS011;11376;50.932;4.442;2022-07-29T09:28:09;1.65;;;0.75;;
22417;SDS011;11376;50.932;4.442;2022-07-29T09:30:52;3.80;;;0.57;;
22417;SDS011;11376;50.932;4.442;2022-07-29T09:33:20;1.30;;;0.65;;
22417;SDS011;11376;50.932;4.442;2022-07-29T09:35:57;3.70;;;0.70;;
22417;SDS011;11376;50.932;4.442;2022-07-29T09:38:32;0.90;;;0.50;;
22417;SDS011;11376;50.932;4.442;2022-07-29T09:41:00;1.65;;;0.70;;
22417;SDS011;11376;50.932;4.442;2022-07-29T09:43:27;2.08;;;0.80;;
22417;SDS011;11376;50.932;4.442;2022-07-29T09:45:52;2.28;;;0.70;;
22417;SDS011;11376;50.932;4.442;2022-07-29T09:50:46;3.17;;;0.65;;
22417;SDS011;11376;50.932;4.442;2022-07-29T09:53:33;2.63;;;0.88;;
22417;SDS011;11376;50.932;4.442;2022-07-29T09:56:03;3.75;;;0.90;;
22417;SDS011;11376;50.932;4.442;2022-07-29T09:58:30;5.30;;;1.00;;
22417;SDS011;11376;50.932;4.442;2022-07-29T10:00:55;2.30;;;0.60;;
22417;SDS011;11376;50.932;4.442;2022-07-29T10:03:21;3.25;;;0.77;;
22417;SDS011;11376;50.932;4.442;2022-07-29T10:06:06;2.45;;;0.85;;
22417;SDS011;11376;50.932;4.442;2022-07-29T10:08:33;4.68;;;1.13;;
22417;SDS011;11376;50.932;4.442;2022-07-29T10:11:09;3.90;;;0.95;;
22417;SDS011;11376;50.932;4.442;2022-07-29T10:13:42;2.35;;;0.73;;
22417;SDS011;11376;50.932;4.442;2022-07-29T10:16:09;6.50;;;1.10;;
22417;SDS011;11376;50.932;4.442;2022-07-29T10:18:37;1.92;;;0.60;;
22417;SDS011;11376;50.932;4.442;2022-07-29T10:21:04;3.70;;;0.85;;
22417;SDS011;11376;50.932;4.442;2022-07-29T10:23:30;3.42;;;1.00;;
22417;SDS011;11376;50.932;4.442;2022-07-29T10:25:56;4.00;;;0.98;;
22417;SDS011;11376;50.932;4.442;2022-07-29T10:28:22;1.58;;;0.93;;
22417;SDS011;11376;50.932;4.442;2022-07-29T10:30:52;5.65;;;0.98;;
22417;SDS011;11376;50.932;4.442;2022-07-29T10:42:17;1.55;;;0.60;;
22417;SDS011;11376;50.932;4.442;2022-07-29T10:44:48;2.45;;;0.80;;
22417;SDS011;11376;50.932;4.442;2022-07-29T10:47:23;3.15;;;0.93;;
22417;SDS011;11376;50.932;4.442;2022-07-29T10:50:04;4.97;;;1.02;;
22417;SDS011;11376;50.932;4.442;2022-07-29T10:53:13;4.13;;;1.20;;
22417;SDS011;11376;50.932;4.442;2022-07-29T10:55:55;5.75;;;1.10;;
22417;SDS011;11376;50.932;4.442;2022-07-29T10:58:19;5.47;;;1.10;;
22417;SDS011;11376;50.932;4.442;2022-07-29T11:00:51;3.47;;;0.98;;
22417;SDS011;11376;50.932;4.442;2022-07-29T11:06:06;5.78;;;0.93;;
22417;SDS011;11376;50.932;4.442;2022-07-29T11:08:32;1.33;;;0.60;;
22417;SDS011;11376;50.932;4.442;2022-07-29T11:13:55;4.30;;;0.85;;
22417;SDS011;11376;50.932;4.442;2022-07-29T11:16:21;2.08;;;0.70;;
22417;SDS011;11376;50.932;4.442;2022-07-29T11:21:35;4.10;;;0.68;;
22417;SDS011;11376;50.932;4.442;2022-07-29T11:24:15;1.42;;;0.60;;
22417;SDS011;11376;50.932;4.442;2022-07-29T11:26:42;2.13;;;0.77;;
22417;SDS011;11376;50.932;4.442;2022-07-29T11:31:50;2.95;;;0.60;;
22417;SDS011;11376;50.932;4.442;2022-07-29T11:34:32;1.60;;;0.55;;
22417;SDS011;11376;50.932;4.442;2022-07-29T11:39:39;0.90;;;0.50;;
22417;SDS011;11376;50.932;4.442;2022-07-29T11:44:53;1.50;;;0.77;;
22417;SDS011;11376;50.932;4.442;2022-07-29T11:47:21;1.75;;;0.60;;
22417;SDS011;11376;50.932;4.442;2022-07-29T11:49:48;1.58;;;0.88;;
22417;SDS011;11376;50.932;4.442;2022-07-29T11:52:16;1.92;;;0.80;;
22417;SDS011;11376;50.932;4.442;2022-07-29T11:54:42;3.08;;;0.70;;
22417;SDS011;11376;50.932;4.442;2022-07-29T11:57:08;2.38;;;0.80;;
22417;SDS011;11376;50.932;4.442;2022-07-29T11:59:38;2.13;;;0.70;;
22417;SDS011;11376;50.932;4.442;2022-07-29T12:02:05;1.73;;;0.90;;
22417;SDS011;11376;50.932;4.442;2022-07-29T12:04:30;4.30;;;1.00;;
22417;SDS011;11376;50.932;4.442;2022-07-29T12:06:56;1.70;;;0.60;;
22417;SDS011;11376;50.932;4.442;2022-07-29T12:09:22;4.15;;;0.75;;
22417;SDS011;11376;50.932;4.442;2022-07-29T12:11:49;6.15;;;0.80;;
22417;SDS011;11376;50.932;4.442;2022-07-29T12:14:24;3.42;;;0.70;;
22417;SDS011;11376;50.932;4.442;2022-07-29T12:16:54;1.60;;;0.63;;
22417;SDS011;11376;50.932;4.442;2022-07-29T12:19:20;2.05;;;0.63;;
22417;SDS011;11376;50.932;4.442;2022-07-29T12:21:46;6.60;;;1.23;;
22417;SDS011;11376;50.932;4.442;2022-07-29T12:24:13;2.05;;;0.85;;
22417;SDS011;11376;50.932;4.442;2022-07-29T12:26:48;2.00;;;0.82;;
22417;SDS011;11376;50.932;4.442;2022-07-29T12:29:18;4.80;;;1.10;;
22417;SDS011;11376;50.932;4.442;2022-07-29T12:31:44;2.15;;;1.00;;
22417;SDS011;11376;50.932;4.442;2022-07-29T12:34:15;3.33;;;0.90;;
22417;SDS011;11376;50.932;4.442;2022-07-29T12:36:41;1.25;;;0.80;;
22417;SDS011;11376;50.932;4.442;2022-07-29T12:39:08;1.73;;;0.70;;
22417;SDS011;11376;50.932;4.442;2022-07-29T12:41:35;1.67;;;0.60;;
22417;SDS011;11376;50.932;4.442;2022-07-29T12:44:01;2.22;;;1.08;;
22417;SDS011;11376;50.932;4.442;2022-07-29T12:46:26;2.03;;;0.70;;
22417;SDS011;11376;50.932;4.442;2022-07-29T12:48:53;2.92;;;1.00;;
22417;SDS011;11376;50.932;4.442;2022-07-29T12:51:28;4.03;;;1.08;;
22417;SDS011;11376;50.932;4.442;2022-07-29T12:56:38;3.40;;;1.20;;
22417;SDS011;11376;50.932;4.442;2022-07-29T13:01:44;2.20;;;0.95;;
22417;SDS011;11376;50.932;4.442;2022-07-29T13:04:23;2.75;;;1.27;;
22417;SDS011;11376;50.932;4.442;2022-07-29T13:06:57;5.47;;;1.30;;
22417;SDS011;11376;50.932;4.442;2022-07-29T13:09:41;4.00;;;1.40;;
22417;SDS011;11376;50.932;4.442;2022-07-29T13:12:09;4.50;;;1.20;;
22417;SDS011;11376;50.932;4.442;2022-07-29T13:14:37;2.88;;;1.30;;
22417;SDS011;11376;50.932;4.442;2022-07-29T13:19:50;5.53;;;1.10;;
22417;SDS011;11376;50.932;4.442;2022-07-29T13:22:37;8.15;;;0.88;;
22417;SDS011;11376;50.932;4.442;2022-07-29T13:25:05;5.25;;;0.90;;
22417;SDS011;11376;50.932;4.442;2022-07-29T13:27:34;3.05;;;1.00;;
22417;SDS011;11376;50.932;4.442;2022-07-29T13:30:04;2.08;;;0.60;;
22417;SDS011;11376;50.932;4.442;2022-07-29T13:32:31;1.80;;;0.88;;
22417;SDS011;11376;50.932;4.442;2022-07-29T13:35:00;2.85;;;1.13;;
22417;SDS011;11376;50.932;4.442;2022-07-29T13:37:28;2.17;;;0.90;;
22417;SDS011;11376;50.932;4.442;2022-07-29T13:39:57;2.40;;;1.00;;
22417;SDS011;11376;50.932;4.442;2022-07-29T13:42:23;1.38;;;0.65;;
22417;SDS011;11376;50.932;4.442;2022-07-29T13:44:49;2.85;;;0.80;;
22417;SDS011;11376;50.932;4.442;2022-07-29T13:47:16;0.68;;;0.40;;
22417;SDS011;11376;50.932;4.442;2022-07-29T13:49:43;3.28;;;0.80;;
22417;SDS011;11376;50.932;4.442;2022-07-29T13:52:08;1.85;;;0.70;;
22417;SDS011;11376;50.932;4.442;2022-07-29T13:54:34;2.40;;;0.68;;
22417;SDS011;11376;50.932;4.442;2022-07-29T13:57:05;2.00;;;0.70;;
22417;SDS011;11376;50.932;4.442;2022-07-29T13:59:32;1.88;;;0.80;;
22417;SDS011;11376;50.932;4.442;2022-07-29T14:01:58;2.03;;;0.57;;
22417;SDS011;11376;50.932;4.442;2022-07-29T14:04:24;4.68;;;0.95;;
22417;SDS011;11376;50.932;4.442;2022-07-29T14:06:49;3.25;;;0.70;;
22417;SDS011;11376;50.932;4.442;2022-07-29T14:09:15;1.77;;;0.60;;
22417;SDS011;11376;50.932;4.442;2022-07-29T14:11:41;2.35;;;0.80;;
22417;SDS011;11376;50.932;4.442;2022-07-29T14:14:07;2.40;;;0.98;;
22417;SDS011;11376;50.932;4.442;2022-07-29T14:16:33;2.45;;;0.90;;
22417;SDS011;11376;50.932;4.442;2022-07-29T14:18:59;2.53;;;0.60;;
22417;SDS011;11376;50.932;4.442;2022-07-29T14:21:24;3.25;;;0.85;;
22417;SDS011;11376;50.932;4.442;2022-07-29T14:23:50;1.17;;;0.50;;
22417;SDS011;11376;50.932;4.442;2022-07-29T14:26:17;1.15;;;0.45;;
22417;SDS011;11376;50.932;4.442;2022-07-29T14:28:43;1.48;;;0.70;;
22417;SDS011;11376;50.932;4.442;2022-07-29T14:31:09;6.53;;;0.70;;
22417;SDS011;11376;50.932;4.442;2022-07-29T14:33:35;4.43;;;0.90;;
22417;SDS011;11376;50.932;4.442;2022-07-29T14:36:00;1.70;;;0.63;;
22417;SDS011;11376;50.932;4.442;2022-07-29T14:38:26;3.00;;;0.77;;
22417;SDS011;11376;50.932;4.442;2022-07-29T14:40:52;2.67;;;0.80;;
22417;SDS011;11376;50.932;4.442;2022-07-29T14:43:17;1.40;;;0.70;;
22417;SDS011;11376;50.932;4.442;2022-07-29T14:45:43;3.00;;;0.70;;
22417;SDS011;11376;50.932;4.442;2022-07-29T14:48:08;2.42;;;0.63;;
22417;SDS011;11376;50.932;4.442;2022-07-29T14:50:36;2.35;;;0.68;;
22417;SDS011;11376;50.932;4.442;2022-07-29T14:53:02;2.95;;;0.85;;
22417;SDS011;11376;50.932;4.442;2022-07-29T14:55:28;3.30;;;0.70;;
22417;SDS011;11376;50.932;4.442;2022-07-29T14:57:53;1.70;;;0.82;;
22417;SDS011;11376;50.932;4.442;2022-07-29T15:00:19;4.32;;;0.63;;
22417;SDS011;11376;50.932;4.442;2022-07-29T15:02:45;1.77;;;0.70;;
22417;SDS011;11376;50.932;4.442;2022-07-29T15:05:11;1.27;;;0.40;;
22417;SDS011;11376;50.932;4.442;2022-07-29T15:07:37;1.48;;;0.50;;
22417;SDS011;11376;50.932;4.442;2022-07-29T15:10:03;3.15;;;0.70;;
22417;SDS011;11376;50.932;4.442;2022-07-29T15:12:29;1.80;;;0.60;;
22417;SDS011;11376;50.932;4.442;2022-07-29T15:14:55;1.02;;;0.43;;
22417;SDS011;11376;50.932;4.442;2022-07-29T15:17:21;3.22;;;0.60;;
22417;SDS011;11376;50.932;4.442;2022-07-29T15:19:46;2.85;;;0.70;;
22417;SDS011;11376;50.932;4.442;2022-07-29T15:22:12;2.00;;;0.60;;
22417;SDS011;11376;50.932;4.442;2022-07-29T15:24:38;1.90;;;0.60;;
22417;SDS011;11376;50.932;4.442;2022-07-29T15:27:03;1.75;;;0.90;;
22417;SDS011;11376;50.932;4.442;2022-07-29T15:29:29;4.35;;;0.88;;
22417;SDS011;11376;50.932;4.442;2022-07-29T15:31:55;2.35;;;0.80;;
22417;SDS011;11376;50.932;4.442;2022-07-29T15:34:20;2.88;;;0.73;;
22417;SDS011;11376;50.932;4.442;2022-07-29T15:36:48;2.80;;;1.02;;
22417;SDS011;11376;50.932;4.442;2022-07-29T15:39:15;1.35;;;0.70;;